sensor_id;sensor_type;location;lat;lon;timestamp;P1;P2;P0
64114;PMS5003;62188;35.640;139.748;2023-03-14T00:00:31;9;9;
64114;PMS5003;62188;35.640;139.748;2023-03-14T00:02:57;16;16;
64114;PMS5003;62188;35.640;139.748;2023-03-14T00:05:23;11;10;
64114;PMS5003;62188;35.640;139.748;2023-03-14T00:07:49;12;11;
64114;PMS5003;62188;35.640;139.748;2023-03-14T00:10:14;9;8;
64114;PMS5003;62188;35.640;139.748;2023-03-14T00:12:40;8;8;
64114;PMS5003;62188;35.640;139.748;2023-03-14T00:15:05;11;10;
64114;PMS5003;62188;35.640;139.748;2023-03-14T00:17:31;10;10;
64114;PMS5003;62188;35.640;139.748;2023-03-14T00:19:57;11;11;
64114;PMS5003;62188;35.640;139.748;2023-03-14T00:22:22;13;12;
64114;PMS5003;62188;35.640;139.748;2023-03-14T00:24:48;9;9;
64114;PMS5003;62188;35.640;139.748;2023-03-14T00:27:14;10;9;
64114;PMS5003;62188;35.640;139.748;2023-03-14T00:29:39;10;8;
64114;PMS5003;62188;35.640;139.748;2023-03-14T00:32:05;11;11;
64114;PMS5003;62188;35.640;139.748;2023-03-14T00:34:32;12;11;
64114;PMS5003;62188;35.640;139.748;2023-03-14T00:36:56;10;10;
64114;PMS5003;62188;35.640;139.748;2023-03-14T00:39:22;10;9;
64114;PMS5003;62188;35.640;139.748;2023-03-14T00:41:47;8;8;
64114;PMS5003;62188;35.640;139.748;2023-03-14T00:44:13;10;9;
64114;PMS5003;62188;35.640;139.748;2023-03-14T00:46:39;9;9;
64114;PMS5003;62188;35.640;139.748;2023-03-14T00:49:05;10;10;
64114;PMS5003;62188;35.640;139.748;2023-03-14T00:51:30;6;6;
64114;PMS5003;62188;35.640;139.748;2023-03-14T00:53:56;11;11;
64114;PMS5003;62188;35.640;139.748;2023-03-14T00:56:22;12;12;
64114;PMS5003;62188;35.640;139.748;2023-03-14T00:58:47;10;9;
64114;PMS5003;62188;35.640;139.748;2023-03-14T01:01:14;9;9;
64114;PMS5003;62188;35.640;139.748;2023-03-14T01:03:39;12;9;
64114;PMS5003;62188;35.640;139.748;2023-03-14T01:06:09;10;10;
64114;PMS5003;62188;35.640;139.748;2023-03-14T01:08:30;11;11;
64114;PMS5003;62188;35.640;139.748;2023-03-14T01:10:55;12;11;
64114;PMS5003;62188;35.640;139.748;2023-03-14T01:13:21;10;10;
64114;PMS5003;62188;35.640;139.748;2023-03-14T01:15:47;10;9;
64114;PMS5003;62188;35.640;139.748;2023-03-14T01:18:12;8;8;
64114;PMS5003;62188;35.640;139.748;2023-03-14T01:20:38;8;8;
64114;PMS5003;62188;35.640;139.748;2023-03-14T01:23:04;14;13;
64114;PMS5003;62188;35.640;139.748;2023-03-14T01:25:29;9;9;
64114;PMS5003;62188;35.640;139.748;2023-03-14T01:27:55;10;10;
64114;PMS5003;62188;35.640;139.748;2023-03-14T01:30:21;12;10;
64114;PMS5003;62188;35.640;139.748;2023-03-14T01:32:47;11;10;
64114;PMS5003;62188;35.640;139.748;2023-03-14T01:35:12;10;10;
64114;PMS5003;62188;35.640;139.748;2023-03-14T01:37:38;9;8;
64114;PMS5003;62188;35.640;139.748;2023-03-14T01:40:04;10;8;
64114;PMS5003;62188;35.640;139.748;2023-03-14T01:42:29;10;9;
64114;PMS5003;62188;35.640;139.748;2023-03-14T01:44:56;8;8;
64114;PMS5003;62188;35.640;139.748;2023-03-14T01:47:20;11;10;
64114;PMS5003;62188;35.640;139.748;2023-03-14T01:49:47;9;8;
64114;PMS5003;62188;35.640;139.748;2023-03-14T01:52:12;9;9;
64114;PMS5003;62188;35.640;139.748;2023-03-14T01:54:39;10;10;
64114;PMS5003;62188;35.640;139.748;2023-03-14T01:57:04;12;11;
64114;PMS5003;62188;35.640;139.748;2023-03-14T01:59:29;11;10;
64114;PMS5003;62188;35.640;139.748;2023-03-14T02:01:55;8;8;
64114;PMS5003;62188;35.640;139.748;2023-03-14T02:04:20;9;9;
64114;PMS5003;62188;35.640;139.748;2023-03-14T02:06:48;12;12;
64114;PMS5003;62188;35.640;139.748;2023-03-14T02:09:11;11;11;
64114;PMS5003;62188;35.640;139.748;2023-03-14T02:11:37;9;8;
64114;PMS5003;62188;35.640;139.748;2023-03-14T02:14:03;9;9;
64114;PMS5003;62188;35.640;139.748;2023-03-14T02:16:28;8;8;
64114;PMS5003;62188;35.640;139.748;2023-03-14T02:18:54;9;9;
64114;PMS5003;62188;35.640;139.748;2023-03-14T02:21:20;12;10;
64114;PMS5003;62188;35.640;139.748;2023-03-14T02:23:47;9;8;
64114;PMS5003;62188;35.640;139.748;2023-03-14T02:26:11;8;8;
64114;PMS5003;62188;35.640;139.748;2023-03-14T02:28:36;7;7;
64114;PMS5003;62188;35.640;139.748;2023-03-14T02:31:01;7;7;
64114;PMS5003;62188;35.640;139.748;2023-03-14T02:33:27;10;10;
64114;PMS5003;62188;35.640;139.748;2023-03-14T02:35:55;7;7;
64114;PMS5003;62188;35.640;139.748;2023-03-14T02:38:20;8;7;
64114;PMS5003;62188;35.640;139.748;2023-03-14T02:40:44;8;7;
64114;PMS5003;62188;35.640;139.748;2023-03-14T02:43:10;7;6;
64114;PMS5003;62188;35.640;139.748;2023-03-14T02:45:37;7;7;
64114;PMS5003;62188;35.640;139.748;2023-03-14T02:48:02;7;7;
64114;PMS5003;62188;35.640;139.748;2023-03-14T02:50:27;9;8;
64114;PMS5003;62188;35.640;139.748;2023-03-14T02:52:52;9;8;
64114;PMS5003;62188;35.640;139.748;2023-03-14T02:55:20;8;8;
64114;PMS5003;62188;35.640;139.748;2023-03-14T02:57:43;8;7;
64114;PMS5003;62188;35.640;139.748;2023-03-14T03:00:09;7;7;
64114;PMS5003;62188;35.640;139.748;2023-03-14T03:02:34;7;7;
64114;PMS5003;62188;35.640;139.748;2023-03-14T03:05:00;9;9;
64114;PMS5003;62188;35.640;139.748;2023-03-14T03:07:25;8;8;
64114;PMS5003;62188;35.640;139.748;2023-03-14T03:09:51;10;9;
64114;PMS5003;62188;35.640;139.748;2023-03-14T03:12:16;8;8;
64114;PMS5003;62188;35.640;139.748;2023-03-14T03:14:42;9;9;
64114;PMS5003;62188;35.640;139.748;2023-03-14T03:17:07;10;9;
64114;PMS5003;62188;35.640;139.748;2023-03-14T03:19:33;9;9;
64114;PMS5003;62188;35.640;139.748;2023-03-14T03:21:58;9;9;
64114;PMS5003;62188;35.640;139.748;2023-03-14T03:24:24;10;9;
64114;PMS5003;62188;35.640;139.748;2023-03-14T03:26:49;9;9;
64114;PMS5003;62188;35.640;139.748;2023-03-14T03:29:15;7;7;
64114;PMS5003;62188;35.640;139.748;2023-03-14T03:31:40;9;9;
64114;PMS5003;62188;35.640;139.748;2023-03-14T03:34:06;10;10;
64114;PMS5003;62188;35.640;139.748;2023-03-14T03:36:31;10;10;
64114;PMS5003;62188;35.640;139.748;2023-03-14T03:38:57;10;10;
64114;PMS5003;62188;35.640;139.748;2023-03-14T03:41:23;10;10;
64114;PMS5003;62188;35.640;139.748;2023-03-14T03:43:48;10;9;
64114;PMS5003;62188;35.640;139.748;2023-03-14T03:46:14;11;11;
64114;PMS5003;62188;35.640;139.748;2023-03-14T03:48:39;10;10;
64114;PMS5003;62188;35.640;139.748;2023-03-14T03:51:05;11;11;
64114;PMS5003;62188;35.640;139.748;2023-03-14T03:53:30;10;9;
64114;PMS5003;62188;35.640;139.748;2023-03-14T03:55:56;8;8;
64114;PMS5003;62188;35.640;139.748;2023-03-14T03:58:21;12;12;
64114;PMS5003;62188;35.640;139.748;2023-03-14T04:00:47;8;8;
64114;PMS5003;62188;35.640;139.748;2023-03-14T04:03:12;11;11;
64114;PMS5003;62188;35.640;139.748;2023-03-14T04:05:38;10;10;
64114;PMS5003;62188;35.640;139.748;2023-03-14T04:08:04;10;9;
64114;PMS5003;62188;35.640;139.748;2023-03-14T04:10:29;9;9;
64114;PMS5003;62188;35.640;139.748;2023-03-14T04:12:55;11;11;
64114;PMS5003;62188;35.640;139.748;2023-03-14T04:15:20;9;9;
64114;PMS5003;62188;35.640;139.748;2023-03-14T04:17:46;11;11;
64114;PMS5003;62188;35.640;139.748;2023-03-14T04:20:12;12;11;
64114;PMS5003;62188;35.640;139.748;2023-03-14T04:22:37;10;10;
64114;PMS5003;62188;35.640;139.748;2023-03-14T04:25:02;12;11;
64114;PMS5003;62188;35.640;139.748;2023-03-14T04:27:28;12;12;
64114;PMS5003;62188;35.640;139.748;2023-03-14T04:29:53;11;10;
64114;PMS5003;62188;35.640;139.748;2023-03-14T04:32:19;10;10;
64114;PMS5003;62188;35.640;139.748;2023-03-14T04:34:45;9;9;
64114;PMS5003;62188;35.640;139.748;2023-03-14T04:37:10;10;10;
64114;PMS5003;62188;35.640;139.748;2023-03-14T04:39:36;8;7;
64114;PMS5003;62188;35.640;139.748;2023-03-14T04:42:01;7;7;
64114;PMS5003;62188;35.640;139.748;2023-03-14T04:44:27;10;10;
64114;PMS5003;62188;35.640;139.748;2023-03-14T04:46:52;13;13;
64114;PMS5003;62188;35.640;139.748;2023-03-14T04:49:18;14;11;
64114;PMS5003;62188;35.640;139.748;2023-03-14T04:51:44;12;10;
64114;PMS5003;62188;35.640;139.748;2023-03-14T04:54:09;11;11;
64114;PMS5003;62188;35.640;139.748;2023-03-14T04:56:34;13;12;
64114;PMS5003;62188;35.640;139.748;2023-03-14T04:59:00;13;13;
64114;PMS5003;62188;35.640;139.748;2023-03-14T05:01:26;16;15;
64114;PMS5003;62188;35.640;139.748;2023-03-14T05:03:53;15;15;
64114;PMS5003;62188;35.640;139.748;2023-03-14T05:06:17;16;16;
64114;PMS5003;62188;35.640;139.748;2023-03-14T05:08:43;18;16;
64114;PMS5003;62188;35.640;139.748;2023-03-14T05:11:09;13;13;
64114;PMS5003;62188;35.640;139.748;2023-03-14T05:13:34;16;15;
64114;PMS5003;62188;35.640;139.748;2023-03-14T05:16:05;13;13;
64114;PMS5003;62188;35.640;139.748;2023-03-14T05:18:25;19;15;
64114;PMS5003;62188;35.640;139.748;2023-03-14T05:20:51;14;13;
64114;PMS5003;62188;35.640;139.748;2023-03-14T05:23:16;14;13;
64114;PMS5003;62188;35.640;139.748;2023-03-14T05:25:43;13;12;
64114;PMS5003;62188;35.640;139.748;2023-03-14T05:28:07;13;13;
64114;PMS5003;62188;35.640;139.748;2023-03-14T05:30:33;15;14;
64114;PMS5003;62188;35.640;139.748;2023-03-14T05:32:59;13;13;
64114;PMS5003;62188;35.640;139.748;2023-03-14T05:35:24;13;13;
64114;PMS5003;62188;35.640;139.748;2023-03-14T05:37:50;15;14;
64114;PMS5003;62188;35.640;139.748;2023-03-14T05:40:16;13;13;
64114;PMS5003;62188;35.640;139.748;2023-03-14T05:42:41;15;14;
64114;PMS5003;62188;35.640;139.748;2023-03-14T05:45:07;11;11;
64114;PMS5003;62188;35.640;139.748;2023-03-14T05:47:32;12;12;
64114;PMS5003;62188;35.640;139.748;2023-03-14T05:49:58;13;13;
64114;PMS5003;62188;35.640;139.748;2023-03-14T05:52:24;15;14;
64114;PMS5003;62188;35.640;139.748;2023-03-14T05:54:49;11;11;
64114;PMS5003;62188;35.640;139.748;2023-03-14T05:57:15;11;11;
64114;PMS5003;62188;35.640;139.748;2023-03-14T05:59:41;14;14;
64114;PMS5003;62188;35.640;139.748;2023-03-14T06:02:06;14;13;
64114;PMS5003;62188;35.640;139.748;2023-03-14T06:04:32;15;12;
64114;PMS5003;62188;35.640;139.748;2023-03-14T06:06:57;14;12;
64114;PMS5003;62188;35.640;139.748;2023-03-14T06:09:23;11;10;
64114;PMS5003;62188;35.640;139.748;2023-03-14T06:11:49;16;16;
64114;PMS5003;62188;35.640;139.748;2023-03-14T06:14:14;11;11;
64114;PMS5003;62188;35.640;139.748;2023-03-14T06:16:40;16;13;
64114;PMS5003;62188;35.640;139.748;2023-03-14T06:19:06;10;10;
64114;PMS5003;62188;35.640;139.748;2023-03-14T06:21:32;9;9;
64114;PMS5003;62188;35.640;139.748;2023-03-14T06:23:57;10;10;
64114;PMS5003;62188;35.640;139.748;2023-03-14T06:26:23;12;12;
64114;PMS5003;62188;35.640;139.748;2023-03-14T06:28:49;13;11;
64114;PMS5003;62188;35.640;139.748;2023-03-14T06:31:14;11;11;
64114;PMS5003;62188;35.640;139.748;2023-03-14T06:33:39;8;7;
64114;PMS5003;62188;35.640;139.748;2023-03-14T06:36:05;11;10;
64114;PMS5003;62188;35.640;139.748;2023-03-14T06:38:31;10;10;
64114;PMS5003;62188;35.640;139.748;2023-03-14T06:40:56;10;10;
64114;PMS5003;62188;35.640;139.748;2023-03-14T06:43:21;13;10;
64114;PMS5003;62188;35.640;139.748;2023-03-14T06:45:47;12;11;
64114;PMS5003;62188;35.640;139.748;2023-03-14T06:48:13;10;9;
64114;PMS5003;62188;35.640;139.748;2023-03-14T06:50:38;11;11;
64114;PMS5003;62188;35.640;139.748;2023-03-14T06:53:04;10;10;
64114;PMS5003;62188;35.640;139.748;2023-03-14T06:55:30;10;10;
64114;PMS5003;62188;35.640;139.748;2023-03-14T06:57:55;10;10;
64114;PMS5003;62188;35.640;139.748;2023-03-14T07:00:21;10;10;
64114;PMS5003;62188;35.640;139.748;2023-03-14T07:02:47;13;11;
64114;PMS5003;62188;35.640;139.748;2023-03-14T07:05:12;10;10;
64114;PMS5003;62188;35.640;139.748;2023-03-14T07:07:38;11;11;
64114;PMS5003;62188;35.640;139.748;2023-03-14T07:10:04;11;11;
64114;PMS5003;62188;35.640;139.748;2023-03-14T07:12:29;7;7;
64114;PMS5003;62188;35.640;139.748;2023-03-14T07:14:54;11;11;
64114;PMS5003;62188;35.640;139.748;2023-03-14T07:17:20;11;10;
64114;PMS5003;62188;35.640;139.748;2023-03-14T07:19:46;11;10;
64114;PMS5003;62188;35.640;139.748;2023-03-14T07:22:11;10;9;
64114;PMS5003;62188;35.640;139.748;2023-03-14T07:24:37;12;12;
64114;PMS5003;62188;35.640;139.748;2023-03-14T07:27:03;10;10;
64114;PMS5003;62188;35.640;139.748;2023-03-14T07:29:28;11;9;
64114;PMS5003;62188;35.640;139.748;2023-03-14T07:31:54;9;8;
64114;PMS5003;62188;35.640;139.748;2023-03-14T07:34:20;10;10;
64114;PMS5003;62188;35.640;139.748;2023-03-14T07:36:45;10;10;
64114;PMS5003;62188;35.640;139.748;2023-03-14T07:39:11;10;10;
64114;PMS5003;62188;35.640;139.748;2023-03-14T07:41:37;10;10;
64114;PMS5003;62188;35.640;139.748;2023-03-14T07:44:02;9;9;
64114;PMS5003;62188;35.640;139.748;2023-03-14T07:46:28;12;11;
64114;PMS5003;62188;35.640;139.748;2023-03-14T07:48:53;11;11;
64114;PMS5003;62188;35.640;139.748;2023-03-14T07:51:19;8;8;
64114;PMS5003;62188;35.640;139.748;2023-03-14T07:53:45;11;10;
64114;PMS5003;62188;35.640;139.748;2023-03-14T07:56:10;10;10;
64114;PMS5003;62188;35.640;139.748;2023-03-14T07:58:36;11;11;
64114;PMS5003;62188;35.640;139.748;2023-03-14T08:01:02;8;8;
64114;PMS5003;62188;35.640;139.748;2023-03-14T08:03:27;11;11;
64114;PMS5003;62188;35.640;139.748;2023-03-14T08:05:53;11;11;
64114;PMS5003;62188;35.640;139.748;2023-03-14T08:08:18;14;12;
64114;PMS5003;62188;35.640;139.748;2023-03-14T08:10:44;9;9;
64114;PMS5003;62188;35.640;139.748;2023-03-14T08:13:09;11;10;
64114;PMS5003;62188;35.640;139.748;2023-03-14T08:15:35;9;9;
64114;PMS5003;62188;35.640;139.748;2023-03-14T08:18:00;8;7;
64114;PMS5003;62188;35.640;139.748;2023-03-14T08:20:27;10;9;
64114;PMS5003;62188;35.640;139.748;2023-03-14T08:22:52;9;9;
64114;PMS5003;62188;35.640;139.748;2023-03-14T08:25:17;9;9;
64114;PMS5003;62188;35.640;139.748;2023-03-14T08:27:43;11;11;
64114;PMS5003;62188;35.640;139.748;2023-03-14T08:30:10;11;11;
64114;PMS5003;62188;35.640;139.748;2023-03-14T08:32:35;10;10;
64114;PMS5003;62188;35.640;139.748;2023-03-14T08:35:00;8;8;
64114;PMS5003;62188;35.640;139.748;2023-03-14T08:37:26;10;8;
64114;PMS5003;62188;35.640;139.748;2023-03-14T08:39:51;10;10;
64114;PMS5003;62188;35.640;139.748;2023-03-14T08:42:17;10;9;
64114;PMS5003;62188;35.640;139.748;2023-03-14T08:44:42;8;8;
64114;PMS5003;62188;35.640;139.748;2023-03-14T08:47:08;10;10;
64114;PMS5003;62188;35.640;139.748;2023-03-14T08:49:34;10;9;
64114;PMS5003;62188;35.640;139.748;2023-03-14T08:51:59;10;10;
64114;PMS5003;62188;35.640;139.748;2023-03-14T08:54:25;12;10;
64114;PMS5003;62188;35.640;139.748;2023-03-14T08:56:50;10;10;
64114;PMS5003;62188;35.640;139.748;2023-03-14T08:59:16;9;8;
64114;PMS5003;62188;35.640;139.748;2023-03-14T09:01:42;10;10;
64114;PMS5003;62188;35.640;139.748;2023-03-14T09:04:08;12;11;
64114;PMS5003;62188;35.640;139.748;2023-03-14T09:06:33;11;11;
64114;PMS5003;62188;35.640;139.748;2023-03-14T09:08:59;11;11;
64114;PMS5003;62188;35.640;139.748;2023-03-14T09:11:24;10;9;
64114;PMS5003;62188;35.640;139.748;2023-03-14T09:13:50;9;9;
64114;PMS5003;62188;35.640;139.748;2023-03-14T09:16:16;11;9;
64114;PMS5003;62188;35.640;139.748;2023-03-14T09:18:41;13;11;
64114;PMS5003;62188;35.640;139.748;2023-03-14T09:21:07;12;11;
64114;PMS5003;62188;35.640;139.748;2023-03-14T09:23:33;9;9;
64114;PMS5003;62188;35.640;139.748;2023-03-14T09:25:58;11;10;
64114;PMS5003;62188;35.640;139.748;2023-03-14T09:28:24;15;12;
64114;PMS5003;62188;35.640;139.748;2023-03-14T09:30:50;10;10;
64114;PMS5003;62188;35.640;139.748;2023-03-14T09:33:15;9;8;
64114;PMS5003;62188;35.640;139.748;2023-03-14T09:35:41;10;9;
64114;PMS5003;62188;35.640;139.748;2023-03-14T09:38:07;9;8;
64114;PMS5003;62188;35.640;139.748;2023-03-14T09:40:33;10;9;
64114;PMS5003;62188;35.640;139.748;2023-03-14T09:42:58;10;10;
64114;PMS5003;62188;35.640;139.748;2023-03-14T09:45:26;12;9;
64114;PMS5003;62188;35.640;139.748;2023-03-14T09:47:49;9;9;
64114;PMS5003;62188;35.640;139.748;2023-03-14T09:50:15;10;10;
64114;PMS5003;62188;35.640;139.748;2023-03-14T09:52:40;11;10;
64114;PMS5003;62188;35.640;139.748;2023-03-14T09:55:07;16;14;
64114;PMS5003;62188;35.640;139.748;2023-03-14T09:57:32;10;9;
64114;PMS5003;62188;35.640;139.748;2023-03-14T09:59:58;13;11;
64114;PMS5003;62188;35.640;139.748;2023-03-14T10:02:23;13;11;
64114;PMS5003;62188;35.640;139.748;2023-03-14T10:04:49;9;9;
64114;PMS5003;62188;35.640;139.748;2023-03-14T10:07:14;9;9;
64114;PMS5003;62188;35.640;139.748;2023-03-14T10:09:40;10;10;
64114;PMS5003;62188;35.640;139.748;2023-03-14T10:12:07;11;10;
64114;PMS5003;62188;35.640;139.748;2023-03-14T10:14:33;12;10;
64114;PMS5003;62188;35.640;139.748;2023-03-14T10:16:58;9;8;
64114;PMS5003;62188;35.640;139.748;2023-03-14T10:19:22;11;11;
64114;PMS5003;62188;35.640;139.748;2023-03-14T10:21:50;11;9;
64114;PMS5003;62188;35.640;139.748;2023-03-14T10:24:20;10;10;
64114;PMS5003;62188;35.640;139.748;2023-03-14T10:26:40;11;11;
64114;PMS5003;62188;35.640;139.748;2023-03-14T10:29:09;8;8;
64114;PMS5003;62188;35.640;139.748;2023-03-14T10:31:33;12;10;
64114;PMS5003;62188;35.640;139.748;2023-03-14T10:33:58;8;8;
64114;PMS5003;62188;35.640;139.748;2023-03-14T10:36:23;9;9;
64114;PMS5003;62188;35.640;139.748;2023-03-14T10:38:48;10;10;
64114;PMS5003;62188;35.640;139.748;2023-03-14T10:41:15;13;10;
64114;PMS5003;62188;35.640;139.748;2023-03-14T10:43:39;8;8;
64114;PMS5003;62188;35.640;139.748;2023-03-14T10:46:06;8;8;
64114;PMS5003;62188;35.640;139.748;2023-03-14T10:48:31;11;11;
64114;PMS5003;62188;35.640;139.748;2023-03-14T10:50:56;8;8;
64114;PMS5003;62188;35.640;139.748;2023-03-14T10:53:21;15;14;
64114;PMS5003;62188;35.640;139.748;2023-03-14T10:55:46;19;19;
64114;PMS5003;62188;35.640;139.748;2023-03-14T10:58:20;15;13;
64114;PMS5003;62188;35.640;139.748;2023-03-14T11:00:37;17;17;
64114;PMS5003;62188;35.640;139.748;2023-03-14T11:03:04;23;22;
64114;PMS5003;62188;35.640;139.748;2023-03-14T11:05:29;13;12;
64114;PMS5003;62188;35.640;139.748;2023-03-14T11:07:54;10;9;
64114;PMS5003;62188;35.640;139.748;2023-03-14T11:10:20;10;9;
64114;PMS5003;62188;35.640;139.748;2023-03-14T11:12:47;10;10;
64114;PMS5003;62188;35.640;139.748;2023-03-14T11:15:13;14;13;
64114;PMS5003;62188;35.640;139.748;2023-03-14T11:17:37;12;10;
64114;PMS5003;62188;35.640;139.748;2023-03-14T11:20:04;11;9;
64114;PMS5003;62188;35.640;139.748;2023-03-14T11:22:29;11;11;
64114;PMS5003;62188;35.640;139.748;2023-03-14T11:24:57;13;12;
64114;PMS5003;62188;35.640;139.748;2023-03-14T11:27:18;9;9;
64114;PMS5003;62188;35.640;139.748;2023-03-14T11:29:45;11;11;
64114;PMS5003;62188;35.640;139.748;2023-03-14T11:32:11;12;11;
64114;PMS5003;62188;35.640;139.748;2023-03-14T11:34:35;12;11;
64114;PMS5003;62188;35.640;139.748;2023-03-14T11:37:00;11;10;
64114;PMS5003;62188;35.640;139.748;2023-03-14T11:39:26;11;11;
64114;PMS5003;62188;35.640;139.748;2023-03-14T11:41:51;11;11;
64114;PMS5003;62188;35.640;139.748;2023-03-14T11:44:17;10;10;
64114;PMS5003;62188;35.640;139.748;2023-03-14T11:46:43;10;9;
64114;PMS5003;62188;35.640;139.748;2023-03-14T11:49:11;9;9;
64114;PMS5003;62188;35.640;139.748;2023-03-14T11:51:34;9;9;
64114;PMS5003;62188;35.640;139.748;2023-03-14T11:54:01;10;10;
64114;PMS5003;62188;35.640;139.748;2023-03-14T11:56:27;12;12;
64114;PMS5003;62188;35.640;139.748;2023-03-14T11:58:53;10;10;
64114;PMS5003;62188;35.640;139.748;2023-03-14T12:01:16;12;11;
64114;PMS5003;62188;35.640;139.748;2023-03-14T12:03:42;9;9;
64114;PMS5003;62188;35.640;139.748;2023-03-14T12:06:11;12;12;
64114;PMS5003;62188;35.640;139.748;2023-03-14T12:08:39;9;8;
64114;PMS5003;62188;35.640;139.748;2023-03-14T12:10:59;10;10;
64114;PMS5003;62188;35.640;139.748;2023-03-14T12:13:24;11;11;
64114;PMS5003;62188;35.640;139.748;2023-03-14T12:15:54;10;9;
64114;PMS5003;62188;35.640;139.748;2023-03-14T12:18:19;10;9;
64114;PMS5003;62188;35.640;139.748;2023-03-14T12:20:41;12;11;
64114;PMS5003;62188;35.640;139.748;2023-03-14T12:23:10;9;9;
64114;PMS5003;62188;35.640;139.748;2023-03-14T12:25:32;10;9;
64114;PMS5003;62188;35.640;139.748;2023-03-14T12:30:25;10;10;
64114;PMS5003;62188;35.640;139.748;2023-03-14T12:37:41;10;10;
64114;PMS5003;62188;35.640;139.748;2023-03-14T12:42:38;11;10;
64114;PMS5003;62188;35.640;139.748;2023-03-14T12:49:49;10;7;
64114;PMS5003;62188;35.640;139.748;2023-03-14T12:52:14;10;7;
64114;PMS5003;62188;35.640;139.748;2023-03-14T12:54:39;10;9;
64114;PMS5003;62188;35.640;139.748;2023-03-14T12:57:08;8;8;
64114;PMS5003;62188;35.640;139.748;2023-03-14T12:59:31;8;7;
64114;PMS5003;62188;35.640;139.748;2023-03-14T13:01:58;7;7;
64114;PMS5003;62188;35.640;139.748;2023-03-14T13:04:26;8;8;
64114;PMS5003;62188;35.640;139.748;2023-03-14T13:06:49;9;8;
64114;PMS5003;62188;35.640;139.748;2023-03-14T13:11:41;11;8;
64114;PMS5003;62188;35.640;139.748;2023-03-14T13:14:08;9;8;
64114;PMS5003;62188;35.640;139.748;2023-03-14T13:16:30;10;10;
64114;PMS5003;62188;35.640;139.748;2023-03-14T13:18:59;8;8;
64114;PMS5003;62188;35.640;139.748;2023-03-14T13:21:24;9;9;
64114;PMS5003;62188;35.640;139.748;2023-03-14T13:26:13;10;10;
64114;PMS5003;62188;35.640;139.748;2023-03-14T13:28:38;8;8;
64114;PMS5003;62188;35.640;139.748;2023-03-14T13:31:05;9;8;
64114;PMS5003;62188;35.640;139.748;2023-03-14T13:33:29;9;8;
64114;PMS5003;62188;35.640;139.748;2023-03-14T13:35:56;8;8;
64114;PMS5003;62188;35.640;139.748;2023-03-14T13:38:21;14;11;
64114;PMS5003;62188;35.640;139.748;2023-03-14T13:40:51;8;8;
64114;PMS5003;62188;35.640;139.748;2023-03-14T13:43:16;10;10;
64114;PMS5003;62188;35.640;139.748;2023-03-14T13:45:48;9;8;
64114;PMS5003;62188;35.640;139.748;2023-03-14T13:48:03;9;9;
64114;PMS5003;62188;35.640;139.748;2023-03-14T13:50:32;9;9;
64114;PMS5003;62188;35.640;139.748;2023-03-14T13:52:56;9;9;
64114;PMS5003;62188;35.640;139.748;2023-03-14T13:55:20;10;10;
64114;PMS5003;62188;35.640;139.748;2023-03-14T13:57:46;10;9;
64114;PMS5003;62188;35.640;139.748;2023-03-14T14:02:37;9;9;
64114;PMS5003;62188;35.640;139.748;2023-03-14T14:05:03;9;9;
64114;PMS5003;62188;35.640;139.748;2023-03-14T14:07:28;10;9;
64114;PMS5003;62188;35.640;139.748;2023-03-14T14:09:54;8;7;
64114;PMS5003;62188;35.640;139.748;2023-03-14T14:12:20;9;9;
64114;PMS5003;62188;35.640;139.748;2023-03-14T14:14:46;6;5;
64114;PMS5003;62188;35.640;139.748;2023-03-14T14:17:11;10;9;
64114;PMS5003;62188;35.640;139.748;2023-03-14T14:19:38;11;11;
64114;PMS5003;62188;35.640;139.748;2023-03-14T14:22:02;10;10;
64114;PMS5003;62188;35.640;139.748;2023-03-14T14:24:30;9;8;
64114;PMS5003;62188;35.640;139.748;2023-03-14T14:26:53;12;11;
64114;PMS5003;62188;35.640;139.748;2023-03-14T14:29:23;10;10;
64114;PMS5003;62188;35.640;139.748;2023-03-14T14:31:44;10;9;
64114;PMS5003;62188;35.640;139.748;2023-03-14T14:36:38;11;10;
64114;PMS5003;62188;35.640;139.748;2023-03-14T14:39:03;14;12;
64114;PMS5003;62188;35.640;139.748;2023-03-14T14:41:28;13;11;
64114;PMS5003;62188;35.640;139.748;2023-03-14T14:43:52;9;8;
64114;PMS5003;62188;35.640;139.748;2023-03-14T14:46:18;11;10;
64114;PMS5003;62188;35.640;139.748;2023-03-14T14:48:43;9;9;
64114;PMS5003;62188;35.640;139.748;2023-03-14T14:51:09;10;10;
64114;PMS5003;62188;35.640;139.748;2023-03-14T14:53:36;14;13;
64114;PMS5003;62188;35.640;139.748;2023-03-14T14:56:03;11;10;
64114;PMS5003;62188;35.640;139.748;2023-03-14T14:58:27;15;12;
64114;PMS5003;62188;35.640;139.748;2023-03-14T15:00:53;10;10;
64114;PMS5003;62188;35.640;139.748;2023-03-14T15:03:17;11;10;
64114;PMS5003;62188;35.640;139.748;2023-03-14T15:05:43;22;19;
64114;PMS5003;62188;35.640;139.748;2023-03-14T15:08:09;13;12;
64114;PMS5003;62188;35.640;139.748;2023-03-14T15:10:34;24;23;
64114;PMS5003;62188;35.640;139.748;2023-03-14T15:13:00;9;8;
64114;PMS5003;62188;35.640;139.748;2023-03-14T15:15:25;21;21;
64114;PMS5003;62188;35.640;139.748;2023-03-14T15:17:50;20;17;
64114;PMS5003;62188;35.640;139.748;2023-03-14T15:20:16;18;17;
64114;PMS5003;62188;35.640;139.748;2023-03-14T15:22:41;14;13;
64114;PMS5003;62188;35.640;139.748;2023-03-14T15:25:07;33;30;
64114;PMS5003;62188;35.640;139.748;2023-03-14T15:27:31;14;13;
64114;PMS5003;62188;35.640;139.748;2023-03-14T15:29:57;37;35;
64114;PMS5003;62188;35.640;139.748;2023-03-14T15:32:22;11;11;
64114;PMS5003;62188;35.640;139.748;2023-03-14T15:34:47;28;24;
64114;PMS5003;62188;35.640;139.748;2023-03-14T15:37:14;27;24;
64114;PMS5003;62188;35.640;139.748;2023-03-14T15:39:38;27;24;
64114;PMS5003;62188;35.640;139.748;2023-03-14T15:42:03;22;20;
64114;PMS5003;62188;35.640;139.748;2023-03-14T15:44:29;7;7;
64114;PMS5003;62188;35.640;139.748;2023-03-14T15:46:54;36;32;
64114;PMS5003;62188;35.640;139.748;2023-03-14T15:49:19;23;22;
64114;PMS5003;62188;35.640;139.748;2023-03-14T15:51:44;16;15;
64114;PMS5003;62188;35.640;139.748;2023-03-14T15:54:10;36;35;
64114;PMS5003;62188;35.640;139.748;2023-03-14T15:56:36;54;52;
64114;PMS5003;62188;35.640;139.748;2023-03-14T15:59:01;57;53;
64114;PMS5003;62188;35.640;139.748;2023-03-14T16:01:27;36;36;
64114;PMS5003;62188;35.640;139.748;2023-03-14T16:03:52;40;39;
64114;PMS5003;62188;35.640;139.748;2023-03-14T16:06:18;11;11;
64114;PMS5003;62188;35.640;139.748;2023-03-14T16:08:43;57;52;